メインページ
METAR-TAF:

METAR-TAF

空港 :

イエローナイフ, ノースウェスト準州, カナダ

イエローナイフ空港

緯度: 62-28N, 経度: 114-27W, 海抜: 205m

現時点の気象観測

当レポートは57分前の11:00(UTC)に作成
の風 5kt
気温 -18°C
湿度 77%
気圧 1028 hPa
視程: 24.1km
高度16000ftの雲はほとんどない

METAR: CYZF 231100Z 08005KT 15SM FEW160 M18/M21 A3036 RMK AC1 AC TR SLP306

時間: 05:57 (11:57 UTC)

予報

当レポートは19分前の11:38(UTC)に作成
予報は23日の 12時(UTC)から 24日の 12時(UTC)まで有効
の風 5kt
視程: 10km
高度20000ftの雲は散在している
23日の 18時(UTC)から 23日の 20時(UTC)まで徐々に
の風 12kt

TAF: CYZF 231138Z 2312/2412 08005KT P6SM SCT200 BECMG 2318/2320 10012KT RMK NXT FCST BY 231800Z

4,000以上の空港の気象観測と天気予報(METAR報とTAF報)

利用可能な観測所は地図上に黄色い丸と赤い丸で示す。

丸の上にカーソルを重ねると観測所名を参照できる。

次にクリックすると気象観測と天気予報を参照できる。

マップの切り替え:黒色「×」印の緑ボタンをクリックして拡大、「-」印の緑ボタンをクリックして縮小、緑色の三角印をクリックして隣りの地図に切り替え


METAR-TAF: